createdAt,value
2022-11-23T00:04:07.377Z,21.27
2022-11-23T00:09:11.623Z,20.27
2022-11-23T00:14:14.398Z,19.03
2022-11-23T00:19:17.269Z,15.53
2022-11-23T00:24:20.279Z,16.60
2022-11-23T00:29:23.080Z,17.00
2022-11-23T05:33:18.564Z,15.50
2022-11-23T05:38:21.768Z,16.80
2022-11-23T05:43:24.902Z,16.73
2022-11-23T05:48:28.516Z,16.20
2022-11-23T05:53:31.922Z,15.33
2022-11-23T05:58:35.142Z,15.60
2022-11-23T06:03:38.358Z,15.87
2022-11-23T06:08:44.429Z,15.17
2022-11-23T06:13:50.126Z,16.83
2022-11-23T06:18:53.548Z,15.67
2022-11-23T06:23:56.658Z,18.60
2022-11-23T06:28:59.775Z,17.00
2022-11-23T06:34:03.005Z,16.07
2022-11-23T06:39:06.357Z,15.03
2022-11-23T06:44:09.662Z,16.33
2022-11-23T06:49:12.990Z,16.13
2022-11-23T06:54:16.153Z,15.23
2022-11-23T06:59:19.343Z,16.17
2022-11-23T07:04:22.582Z,16.37
2022-11-23T07:09:25.703Z,16.70
2022-11-23T07:14:29.022Z,15.63
2022-11-23T07:19:32.549Z,16.43
2022-11-23T07:24:40.508Z,15.53
2022-11-23T07:29:45.873Z,15.73
2022-11-23T07:34:49.066Z,15.93
2022-11-23T07:39:57.769Z,17.17
2022-11-23T07:45:01.533Z,18.27
2022-11-23T07:50:10.068Z,19.03
2022-11-23T07:55:13.226Z,18.87
2022-11-23T08:00:16.993Z,17.43
2022-11-23T08:05:20.208Z,17.00
2022-11-23T08:10:23.457Z,16.63
2022-11-23T08:15:30.463Z,16.03
2022-11-23T08:20:33.918Z,15.13
2022-11-23T08:25:37.046Z,15.43
2022-11-23T08:30:40.645Z,17.43
2022-11-23T08:35:44.062Z,16.03
2022-11-23T08:40:47.589Z,14.93
2022-11-23T08:45:50.721Z,14.47
2022-11-23T08:50:54.201Z,13.60
2022-11-23T08:56:00.402Z,13.77
2022-11-23T09:01:07.855Z,12.40
2022-11-23T09:06:11.568Z,13.80
2022-11-23T09:11:14.996Z,13.67
2022-11-23T09:16:18.230Z,15.10
2022-11-23T09:21:21.527Z,15.40
2022-11-23T09:26:25.397Z,16.03
2022-11-23T09:31:29.068Z,15.57
2022-11-23T09:36:32.379Z,14.60
2022-11-23T09:42:00.699Z,14.33
2022-11-23T09:47:07.578Z,14.20
2022-11-23T09:52:17.439Z,11.87
2022-11-23T09:57:25.035Z,11.37
2022-11-23T10:02:29.171Z,11.00
2022-11-23T10:08:01.271Z,11.53
2022-11-23T10:13:29.743Z,10.30
2022-11-23T10:18:44.879Z,10.50
2022-11-23T10:23:50.911Z,11.43
2022-11-23T10:28:55.292Z,10.33
2022-11-23T10:34:23.855Z,9.23
2022-11-23T10:39:28.302Z,10.37
2022-11-23T10:44:43.193Z,10.37
2022-11-23T10:49:58.534Z,8.90
2022-11-23T10:55:05.483Z,8.90
2022-11-23T11:00:14.832Z,8.53
2022-11-23T11:11:00.500Z,9.60
2022-11-23T11:16:06.621Z,10.43
2022-11-23T11:21:24.647Z,10.33
2022-11-23T11:26:29.831Z,11.30
2022-11-23T11:31:57.180Z,10.50
2022-11-23T11:37:29.870Z,10.50
2022-11-23T11:43:03.425Z,11.27
2022-11-23T11:48:15.182Z,10.97
2022-11-23T11:53:24.602Z,10.87
2022-11-23T11:58:28.238Z,10.80
2022-11-23T12:03:53.058Z,11.80
2022-11-23T12:09:19.102Z,10.80
2022-11-23T12:14:22.585Z,11.40
2022-11-23T12:19:59.742Z,12.00
2022-11-23T12:25:11.705Z,10.07
2022-11-23T12:30:26.208Z,9.73
2022-11-23T12:35:44.860Z,11.23
2022-11-23T12:41:03.036Z,12.07
2022-11-23T12:46:12.393Z,11.97
2022-11-23T12:51:25.507Z,11.33
2022-11-23T12:56:53.108Z,10.43
2022-11-23T13:02:05.577Z,10.30
2022-11-23T13:07:31.396Z,10.33
2022-11-23T13:12:57.706Z,11.87
2022-11-23T13:18:15.386Z,11.90
2022-11-23T13:23:22.160Z,11.13
2022-11-23T13:28:32.333Z,10.60
2022-11-23T13:33:39.072Z,11.07
2022-11-23T13:38:45.474Z,11.27
2022-11-23T13:43:48.735Z,12.10
2022-11-23T13:48:57.584Z,12.70
2022-11-23T13:54:21.517Z,13.20
2022-11-23T13:59:24.633Z,12.67
2022-11-23T14:04:33.235Z,11.83
2022-11-23T14:10:08.335Z,13.10
2022-11-23T14:15:23.486Z,10.47
2022-11-23T14:20:41.610Z,10.57
2022-11-23T14:26:05.183Z,10.57
2022-11-23T14:38:44.873Z,11.77
2022-11-23T14:43:49.236Z,17.00
2022-11-23T14:48:57.009Z,22.73
2022-11-23T14:54:03.443Z,14.13
2022-11-23T14:59:21.288Z,12.17
2022-11-23T15:04:34.941Z,12.03
2022-11-23T15:10:06.474Z,12.87
2022-11-23T15:15:22.967Z,12.33
2022-11-23T15:20:34.069Z,13.67
2022-11-23T15:25:37.064Z,12.43
2022-11-23T15:30:40.122Z,12.93
2022-11-23T15:35:43.389Z,12.57
2022-11-23T15:40:49.387Z,13.20
2022-11-23T15:45:52.363Z,13.73
2022-11-23T15:51:08.537Z,15.37
2022-11-23T15:56:35.825Z,14.33
2022-11-23T16:01:39.379Z,14.17
2022-11-23T16:06:48.075Z,15.37
2022-11-23T16:11:51.463Z,15.40
2022-11-23T16:17:06.472Z,15.17
2022-11-23T16:22:25.827Z,16.53
2022-11-23T16:27:29.131Z,12.53
2022-11-23T16:32:32.850Z,12.53
2022-11-23T16:37:35.933Z,12.53
2022-11-23T16:42:38.870Z,12.23
2022-11-23T16:48:02.902Z,11.10
2022-11-23T16:53:16.291Z,11.97
2022-11-23T16:58:20.077Z,12.43
2022-11-23T17:03:24.278Z,12.37
2022-11-23T17:08:27.419Z,12.27
2022-11-23T17:13:30.462Z,12.53
2022-11-23T17:18:33.507Z,12.57
2022-11-23T17:23:36.636Z,12.83
2022-11-23T17:28:39.629Z,13.33
2022-11-23T17:33:42.494Z,14.07
2022-11-23T17:38:47.500Z,13.37
2022-11-23T17:43:50.445Z,14.37
2022-11-23T17:48:59.011Z,16.20
2022-11-23T17:54:01.974Z,16.87
2022-11-23T17:59:06.971Z,15.67
2022-11-23T18:04:10.222Z,22.63
2022-11-23T18:09:13.288Z,26.37
2022-11-23T18:14:18.257Z,15.00
2022-11-23T18:19:21.390Z,12.90
2022-11-23T18:24:24.528Z,13.77
2022-11-23T18:29:27.579Z,12.03
2022-11-23T18:34:30.702Z,18.80
2022-11-23T18:39:34.162Z,14.70
2022-11-23T18:44:37.393Z,24.10
2022-11-23T18:49:40.432Z,14.03
2022-11-23T18:54:43.518Z,16.30
2022-11-23T19:00:02.280Z,19.60
2022-11-23T19:05:06.310Z,14.40
2022-11-23T19:10:09.719Z,13.03
2022-11-23T19:15:13.011Z,14.23
2022-11-23T19:20:19.416Z,13.67
2022-11-23T19:25:22.405Z,14.97
2022-11-23T19:30:25.406Z,12.67
2022-11-23T19:35:28.372Z,16.63
2022-11-23T19:40:31.350Z,14.33
2022-11-23T19:45:34.382Z,16.20
2022-11-23T19:50:37.371Z,14.43
2022-11-23T19:55:40.283Z,12.30
2022-11-23T20:00:46.165Z,11.87
2022-11-23T20:06:01.942Z,11.53
2022-11-23T20:11:17.312Z,11.13
2022-11-23T20:16:22.021Z,10.03
2022-11-23T20:21:26.224Z,11.10
2022-11-23T20:26:30.096Z,11.47
2022-11-23T20:31:34.145Z,12.10
2022-11-23T20:36:38.464Z,11.93
2022-11-23T20:41:43.075Z,14.03
2022-11-23T20:47:01.437Z,12.50
2022-11-23T20:52:05.523Z,12.30
2022-11-23T20:57:09.154Z,12.60
2022-11-23T21:02:12.571Z,13.10
2022-11-23T21:07:15.611Z,14.03
2022-11-23T21:12:37.379Z,14.73
2022-11-23T21:17:40.462Z,14.27
2022-11-23T21:22:43.393Z,13.47
2022-11-23T21:27:46.266Z,12.80
2022-11-23T21:32:52.435Z,13.00
2022-11-23T21:37:55.490Z,13.00
2022-11-23T21:42:58.751Z,13.27
2022-11-23T21:48:01.679Z,12.67
2022-11-23T21:53:04.612Z,14.07
2022-11-23T21:58:07.709Z,14.03
2022-11-23T22:03:12.101Z,14.20
2022-11-23T22:08:28.815Z,14.47
2022-11-23T22:13:36.748Z,12.83
2022-11-23T22:18:40.338Z,11.63
2022-11-23T22:23:43.788Z,13.07
2022-11-23T22:28:51.621Z,13.07
2022-11-23T22:33:54.852Z,11.20
2022-11-23T22:39:04.903Z,11.53
2022-11-23T22:44:10.685Z,11.27
2022-11-23T22:49:13.900Z,13.73
2022-11-23T22:54:16.988Z,11.47
2022-11-23T22:59:20.130Z,12.80
2022-11-23T23:04:23.409Z,11.43
2022-11-23T23:09:26.655Z,12.43
2022-11-23T23:14:29.783Z,13.60
2022-11-23T23:19:33.018Z,11.93
2022-11-23T23:24:36.492Z,12.17
2022-11-23T23:29:39.790Z,11.90
2022-11-23T23:34:42.883Z,12.87
2022-11-23T23:39:46.158Z,11.63
2022-11-23T23:44:49.268Z,11.60
2022-11-23T23:49:53.556Z,11.63
2022-11-23T23:54:56.756Z,11.97
2022-11-23T23:59:59.903Z,11.87
